Kmdw taf. Oct 5, 2023 · taf; kmdw 19nm ne : 100255z 1003/1106 28007kt p6sm sc...

Impacts TAF Board. TAF Home. Plot. Data. Board. Info. For situationa

126.05 MHz. Chicago Approach. Ground. 121.65 MHz. Midway Ground. Warning: Do not use this data for real-world aviation or navigation. No guarantee of current accuracy is given. Airport information for Chicago Midway Intl (KMDW) in , including runways, map, navaids, weather (METAR/TAF) and ATC frequencies. For flight simulation use only.Raw TAF KMDW 200312Z 2003/2106 16009KT P6SM SCT080 OVC100 FM200800 20008KT P6SM SCT080 BKN200 TEMPO 2008/2012 6SM SHRA BKN070 FM202200 16007KT P6SM BKN200 METAR Board Radar Display Forecast Discussion. For situational awareness. Not to be used for flight planning purposes.TAMPA. FL. US. 27.97. -82.53. 2. ADDS Station Table (full) Page loaded: 07:48 UTC | 12:48 AM Pacific | 01:48 AM Mountain | 02:48 AM Central | 03:48 AM Eastern. Aviation Weather Center Homepage provides comprehensive user-friendly aviation weather Text products and graphics. NOTE: LAMP data beyond the time of the TAF data is denoted as LAMP in Type and colored magenta. Raw TAF KMDW 181451Z 1815/1918 02005KT P6SM FEW050 SCT250 KMDW 181451Z 1815/between 1200Z and 1400Z the sky condition may temporarily be one-half mile<br />. visibility with fog.<br />. From 1600Z until the next forecast, the wind will be variable at 4 knots, with the<br />. visibility greater than 6 statute miles and no significant weather and clear sky<br />. conditions. METAR/TAF Quiz METAR TAF.raw taf kmdw 271730z 2718/2824 09010kt p6sm vcsh sct015 bkn025 fm280100 07008kt p6sm sct008 bkn020 fm280600 06006kt 5sm br bkn008 fm281500 06008kt p6sm bkn015 fm282100 05008kt p6sm sct025 bkn035 raw metar kmdw 271953z 09013kt 9sm sct015 bkn036 ovc044 20/16 a3004 rmk ao2 slp166 t02000161 kmdw 271853z 08012kt 8sm …14.5 Terminal Aerodrome Forecast (TAF) Terminal aerodrome forecasts (TAFs) are weather forecasts for selected airports with operating control towers around the country. Cumulonimbus clouds (CB) are the only cloud type forecast in TAFs as these are storm clouds and could greatly effect flight planning to that airport.KMDW - Chicago Midway International Airport (18 nm NW) Loc | Ops ... TAF; KGYY 7nm NE : 101724Z 1018/1118 27011G18KT P6SM BKN060 FM110000 25005KT P6SM SCT060 KMDWMETAR KMDW 091353Z 33006KT 10SM FEW040 SCT075 09/M01 A2985 RMK AO2 SLP109 T00941006 ... TAF KMDW. Raw Text. KMDW 091120Z 0912/1018 32006KT P6SM SCT080 FM091600 ...TAF for: KMDW (Chicago/Midway Intl, IL, US) issued at 1120 UTC 06 Aug 2023 ... KMDW 061120Z 0612/0718 05015G22KT P6SM VCSH BKN012 OVC025 : Forecast period: 1200 to 1900 UTC 06 August 2023: Forecast type: FROM: standard forecast or significant change: Winds: from the NE (50 degrees) at 17 MPH (15 knots; 7.7 m/s) …Denver International Airport is a large airport in Colorado, United States. The airport is located at latitude 39.86098 and longitude -104.67189. The airport has 6 runways: 16R/34L, 7/25, 8/26, 16L/34R, 17L/35R and 17R/35L. The ICAO airport code of this field is KDEN. The local airport ID (FAA LID) of this airport is DEN.TAF Home. Plot. Data. Board. Info. For situational awareness. Not to be used for flight planning purposes. IDs: KMDW - Chicago/Midway Intl, IL, US. Issued at 0901 UTC ... Data at: 1431 UTC 04 Oct 2023. KMDW 041353Z 20008KT 10SM FEW070 FEW090 SCT200 BKN250 23/14 A3000 RMK AO2 SLP150 T02280144. KMDW 041140Z 0412/0518 21013G22KT P6SM BKN100. FM050000 22008KT P6SM VCSH SCT035 BKN080. FM050700 23006KT 6SM -RA SCT025 OVC040. METAR Chicago O'hare International Airport - KORD/ORD. Chicago O'hare International Airport is a large airport in Illinois, United States. The airport is located at latitude 41.97728 and longitude -87.90784. The airport has 8 runways: 10L/28R, 9R/27L, 9C/27C, 4R/22L, 4L/22R, 9L/27R, 10C/28C and 10R/28L. The ICAO airport code of this field is KORD.TAF for: KDEN (Denver Intl, CO, US) issued at 0212 UTC 13 Oct 2023: Text: KDEN 130212Z 1302/1406 36024G44KT P6SM VCSH SCT060 BKN080 BKN120 : Forecast period: 0200 to 0400 UTC 13 October 2023: Forecast type: FROM: standard forecast or significant change: Winds: from the N (360 degrees) at 28 MPH (24 knots; 12.3 m/s) …raw taf kmdw 271730z 2718/2824 09010kt p6sm vcsh sct015 bkn025 fm280100 07008kt p6sm sct008 bkn020 fm280600 06006kt 5sm br bkn008 fm281500 06008kt p6sm bkn015 fm282100 05008kt p6sm sct025 bkn035 raw metar kmdw 271953z 09013kt 9sm sct015 bkn036 ovc044 20/16 a3004 rmk ao2 slp166 t02000161 kmdw 271853z 08012kt 8sm …TAMPA. FL. US. 27.97. -82.53. 2. ADDS Station Table (full) Page loaded: 07:48 UTC | 12:48 AM Pacific | 01:48 AM Mountain | 02:48 AM Central | 03:48 AM Eastern. Aviation Weather Center Homepage provides comprehensive user-friendly aviation weather Text products and graphics.KMDW - Chicago/Midway Intl, IL, US. ... Raw TAF KMDW 071120Z 0712/0818 30012G18KT P6SM FEW050 SCT100 FM080100 30005KT P6SM SCT080 SCT200 METAR Board Radar Display ...Oct 11, 2023 · TAF Dupage Airport. Dupage Airport is a midsized airport in Illinois, United States. The airport is located at latitude 41.90853 and longitude -88.24736. The airport has 4 runways: 2L/20R, 2R/20L, 10/28 and 15/33. The ICAO airport code of this field is KDPA. The local airport ID (FAA LID) of this airport is DPA. The airport's IATA code is DPA. KMDW - Chicago/Midway Intl, IL, US. Issued at 0540 UTC 18 Sep 2023. Updated at 0757 UTC 18 Sep 2023. NOTE: LAMP data beyond the time of the TAF data is denoted as LAMP in Type and colored magenta. Raw TAF. KMDW 180540Z 1806/1912 34005KT P6SM SCT050. FM182000 11006KT P6SM SCT060. METAR Board. Radar Display. Forecast Discussion.Oct 12, 2023 · TAF for: KDEN (Denver Intl, CO, US) issued at 0212 UTC 13 Oct 2023: Text: KDEN 130212Z 1302/1406 36024G44KT P6SM VCSH SCT060 BKN080 BKN120 : Forecast period: 0200 to 0400 UTC 13 October 2023: Forecast type: FROM: standard forecast or significant change: Winds: from the N (360 degrees) at 28 MPH (24 knots; 12.3 m/s) gusting to 51 MPH (44 knots ... what are the current conditions depicted for chicago midway airport (KMDW)? A) sky 700 feet overcast, visibility 1-1/2sm, rain. B) sky 7000 feet overcast, ...AVIATION WEATHER CENTER. This site is changing on October 16, 2023. Preview the new site at Beta.AviationWeather.gov. SCN23-79: Upgrade of Aviation Weather Center Website. TAFs.Study with Quizlet and memorize flashcards containing terms like (Refer to figure 12.) The wind direction and velocity at KJFK is from A 180 true at 4 knots. B 180 magnetic at 4 knots. C 040 true at 18 knots., (Refer to figure 12.) What are the current conditions depicted for Chicago Midway Airport (KMDW)? A Sky 700 feet overcast, visibility 1-1/2SM, rain. B Sky …Refer to Figure 17.) Determine the wind and temperature aloft forecast for DEN at 9,000 feet. 230° true at 21 knots, temperature -4 °C. When speaking to a flight service weather briefer, you should state. whether the flight is VFR or IFR. Refer to Figure 15.) The only cloud type forecast in TAF reports is.E6B, NavLog Calculator, Weather Reports, METAR, TAF, Wind Components, Instrument Simulator, Weight and Balance, Pressure Altitude, Density Altitude, True Air Speed ...CHICAGO MIDWAY AIRPORT, IL, United States (KMDW) 41-47N 087-45W 188M. Oct 05, 2023 - 06:33 AM EDT / 2023.10.05 1033 UTC. Wind: from the SSW (210 degrees) at 7 MPH (6 KT):0. Visibility: 6 mile (s):0. Sky conditions: overcast. Weather: light rain; mist. Precipitation last hour: 0.04 inches.raw taf kmdw 130251z 1303/1406 31010kt p6sm sct025 ovc050 fm131000 33008kt p6sm sct040 kmdw 130251z 1303/1406 31010kt p6sm sct025 ovc050 fm131000 33008kt p6sm sct040 IDs: Format: Raw Decoded Include TAF Data at: 2330 UTC 23 Sep 2023 MGGT 232300Z 07006KT 9999 FEW022 FEW025CB 25/17 Q1017 A3003 FEW100 FEW200 CB/PCPN S/SSW MGGT 232300Z 2400/2500 03008KT 9999 SCT016 TX27/2420Z TN16/2412Z TEMPO 2406/2416 SCT012 BECMG 2416/2418 18008KT SCT018 TEMPO 2418/2500 …Meteorological Aerodrome Reports (METAR), Terminal Area Forecasts (TAF), SIGMET and Notices to Airmen (NOTAM) of all airports in the world. Decoded and visual. Metar & TafMay 1, 2023 · METAR Chicago Midway International Airport - KMDW/MDW. Chicago Midway International Airport is a large airport in Illinois, United States. The airport is located at latitude 41.78594 and longitude -87.75253. The airport has 5 runways: 13C/31C, 4R/22L, 4L/22R, 13L/31R and 13R/31L. kmdw: taf: 2023/10/05: 10:30 utc: noaa: taf amd kmdw 051028z 0510/0612 22005 kt 6 sm-ra br sct 025 o vc 035 tempo 0510/0513 3 sm-ra br sct 015 bkn 025 fm 051300 24006 kt p6 sm sct 015 bkn 050 tempo 0513/0517 5 sm-ra br sct 010 bkn 015 fm 060300 30008 kt p6 sm sct 070Impacts TAF Board. TAF Home. Plot. Data. Board. Info. For situational awareness. Not to be used for flight planning purposes. IDs: KMDW - Chicago/Midway Intl, IL, US. Issued at 1725 UTC 28 Aug 2023. Updated at 1958 UTC 28 Aug 2023. Potential Impact: None: Slight: Moderate: High: Time <<29/08Z 29/09Z 29/10Z 29/11Z 29/12Zovercast at 2,000 feet during the forecast period between 2200Z and 2400Z. (Refer to Figure 18.) According to the Weather Depiction Chart, the weather for a flight from southern Michigan to north Indiana is ceilings. greater than 3, 000 feet and visibility greater than 5 miles. What should pilots state initially when telephoning a weather ... NOTE: LAMP data beyond the time of the TAF data is denoted as LAMP in Type and colored magenta. Raw TAF KMDW 181451Z 1815/1918 02005KT P6SM FEW050 SCT250 KMDW 181451Z 1815/This entry means. Rain began at 1835z. (Refer to Figure 12) What are the current conditions depicted for Chicago Midway Airport (KMDW)? Sky 700ft overcast, visibility 1-1/2 SM, rain. (Refer to figure 14) The base and tops of the overcast layer reported by a pilot are. 7,200 ft MSL and 8,900 ft MSL. 1015 users online KMDW Chicago Midway International Airport Chicago, Illinois, USA GOING TO CHICAGO? Reserve a Hotel Room FAA INFORMATION EFFECTIVE 05 OCTOBER 2023 Location Airport Operations Airport Communications Nearby radio navigation aids Airport Services Runway Information Runway 13C/31C Runway 4R/22L Runway 4L/22R Runway 13L/31RTAF for: KSDF (Louisville Intl, KY, US) issued at 1720 UTC 12 Oct 2023: Text: KSDF 121720Z 1218/1324 VRB04KT P6SM SKC : Forecast period: 1800 UTC 12 October 2023 to 0000 UTC 13 October 2023: Forecast type: FROM: standard forecast or significant change: Winds: variable direction winds at 5 MPH (4 knots; 2.1 m/s) Visibility: 6 or more sm (10+ km ...METAR TAF : Current weather observation and Forecast, Chicago Midway International Airport Illinois United States. Satellite images. 10-day forecasts. ... TAF: KMDW 211728Z 2118/2224 09008KT P6SM VCSH SCT060 OVC100 TEMPO 2118/2122 5SM -SHRA SCT040 BKN070 FM220000 09005KT P6SM VCSH SCT060 BKN100 PROB30 …TAFs help_outline. Translated. TAFs from this airport: KMDW TAF. Issued: 8:00 PM PDT. (in 3 hours). Today 8:00 PM - Tomorrow 7:00 AM PDT. Vis: >6 SM. Wind: 080 ...KMDW - Chicago/Midway Intl, IL, US Issued at 0902 UTC 20 Sep 2023 Updated at 1030 UTC 20 Sep 2023 Potential Impact None Slight Moderate High NOTE: LAMP data …TAF for: KAVP (Wilkes-Barre/Scranto, PA, US) issued at 1355 UTC 07 Oct 2023: Text: KAVP 071355Z 0714/0812 27004KT 6SM RA BR SCT004 OVC035 : Forecast period: 1400 to 1500 UTC 07 October 2023: Forecast type: FROM: standard forecast or significant change: Winds: from the W (270 degrees) at 5 MPH (4 knots; 2.1 m/s) Visibility: 6 sm ( 10 km) Ceiling ...Weather Forecasts and Reports. (refer to figure 17) what wind is forecast for STL at 9,000 feet? When you look at the line for STL is reporting 2332 + 02 at 9,000'. Winds from 230 degrees (first two digits). at 32 knots (second two digits), with a temperature of 2 degrees Celsius (last 2 digits)Chicago Midway International Airport is a large airport in Illinois, United States. The airport is located at latitude 41.78594 and longitude -87.75253. The airport has 5 runways: 13C/31C, 4R/22L, 4L/22R, 13L/31R and 13R/31L. The ICAO airport code of this field is KMDW. The local airport ID (FAA LID) of this airport is MDW.Data at: 1431 UTC 04 Oct 2023. KMDW 041353Z 20008KT 10SM FEW070 FEW090 SCT200 BKN250 23/14 A3000 RMK AO2 SLP150 T02280144. KMDW 041140Z 0412/0518 21013G22KT P6SM BKN100. FM050000 22008KT P6SM VCSH SCT035 BKN080. FM050700 23006KT 6SM -RA SCT025 OVC040.Raw TAF KMDW 200312Z 2003/2106 16009KT P6SM SCT080 OVC100 FM200800 20008KT P6SM SCT080 BKN200 TEMPO 2008/2012 6SM SHRA BKN070 FM202200 16007KT P6SM BKN200 METAR Board Radar Display Forecast Discussion. For situational awareness. Not to be used for flight planning purposes.METAR Los Angeles International Airport - KLAX/LAX. Los Angeles International Airport is a large airport in California, United States. The airport is located at latitude 33.94312 and longitude -118.40880. The airport has 4 runways: 7L/25R, 6R/24L, 6L/24R and 7R/25L. The ICAO airport code of this field is KLAX.TAF KADW 120900Z 1209/1315 VRB03KT 9999 SCT100 SCT250 QNH2988INS : Forecast period: 0900 to 1800 UTC 12 October 2023 Forecast type: FROM: standard forecast or significant change Winds: variable direction winds at 3 MPH (3 knots; 1.5 m/s) Visibility: 6 or more miles (10 ...Study with Quizlet and memorize flashcards containing terms like [METAR KLAX 121852Z 25004KT 6SM BR SCT007 SCT250 16/15 A2991 SPECI KMDW 121856Z 32005KT 1 1/2SM RA OVC007 17/16 A2980 RMK RAB35] UA.III.A.K2 Aviation routine weather reports (METAR). (Refer to FAA-CT-8080-2H, Figure 12.) What are the current conditions for …Oct 10, 2023 · METAR Chicago Midway International Airport - KMDW/MDW. Chicago Midway International Airport is a large airport in Illinois, United States. The airport is located at latitude 41.78594 and longitude -87.75253. The airport has 5 runways: 13C/31C, 4R/22L, 4L/22R, 13L/31R and 13R/31L. This entry means. rain began at 1835Z. (fig 12) The wind direction and velocity at KJFK is from. 180 true at 4 knots. (fig 12) What are the current conditions depicted for Chicago Midway Airport (KMDW)? "Sky 700 feet overcast, visibility 1 « SM, rain". " (fig 12) What are the wind conditions at Wink, Texas (KINK)?" klot 141345z 02019g24kt 2 1/2sm -ra br ovc007 11/11 a2974 no taf found for klot. kmdw 141353z 05013g25kt 2 1/2sm -ra br bkn007 bkn011 ovc024 12/10 a2975 rmk ao2 pk wnd 04029/1343 slp072 p0003 t01170100 $ kmdw 141307z 1413/1518 05019g30kt 4sm -ra br bkn007 ovc012 tempo 1413/1415 1 1/2sm ra br fm141600 04019g30kt 5sm -shra sct007 ovc014 ...KMDW METAR TAF. AREA. AREA METARS AREA TAFS. ADVISORIES. 1 AIRMET. TRENDS. WX HISTORY WX GRAPHS. Search icon. KMDW METAR TAF AREA METARS AREA TAFS 1 AIRMET ...KMDW TAF Chicago Midway International Airport KMDW 100853Z 1009/1112 28006KT P6SM SCT060 BKN100 FM101600 28012G20KT P6SM BKN060 FM102300 33006KT P6SM SCT060 Observation time: 78 min. ago Need help? Read our tutorial on how to read TAFs or read the parsed version below. Parsed version of TAF for Chicago Midway International Airport (KMDW)Impacts TAF Board. TAF Home. Plot. Data. Board. Info. For situational awareness. Not to be used for flight planning purposes. IDs: KMDW - Chicago/Midway Intl, IL, US. Issued at 1416 UTC 05 Apr 2023. Updated at 1444 UTC 05 Apr 2023. Potential Impact: None: Slight: Moderate: High: Time 1353Z 05/15Z 05/16Z 05/17Z 05/18Z 05/19ZTAF Home. Plot. Data. Board. Info. For situational awareness. Not to be used for flight planning purposes. IDs: KMDW - Chicago/Midway Intl, IL, US. Issued at 0901 UTC ...Conditions at: KMDW (CHICAGO , IL, US) observed 0853 UTC 13 October 2023. Temperature: 14.4°C (58°F) Dewpoint: 9.4°C (49°F) [RH = 72%] Pressure (altimeter): 29.93 inches Hg (1013.6 mb) [Sea-level pressure: 1013.2 mb]NOTE: LAMP data beyond the time of the TAF data is denoted as LAMP in Type and colored magenta. Raw TAF KMDW 271730Z 2718/2824 09010KT P6SM VCSH SCT015 BKN025 FM280100 07008KT P6SM SCT008 BKN020 FM280600 06006KT 5SM BR BKN008 FM281500 06008KT P6SM BKN015 FM282100 05008KT P6SM SCT025 BKN035 Raw METAR KMDW 271953Z 09013KT 9SM SCT015 BKN036 OVC044 20/16 A3004 RMK AO2 SLP166 T02000161 KMDW 271853Z ...TAF KADW 250100Z 2501/2607 16006KT 9999 -SHRA SCT050 BKN150 QNH2988INS. Forecast period: 0100 to 0200 UTC 25 August 2023. Forecast type: FROM: standard forecast or significant change. Winds: from the SSE (160 degrees) at 7 MPH (6 knots; 3.1 m/s) Visibility: 6 or more sm (10+ km)data at: 2133 utc 24 sep 2023. kmdw 242053z 10009kt 10sm few100 bkn180 bkn250 24/15 a2999 rmk ao2 slp151 t02440150 56010 $ kmdw 242051z 2421/2524 10008kt p6sm few100 sct200 fm250300 09009kt p6sm vcsh sct080 bkn200 fm250600 11005kt p6sm few060 bkn100 fm252000 07009kt p6sm bkn090between 1200Z and 1400Z the sky condition may temporarily be one-half mile<br />. visibility with fog.<br />. From 1600Z until the next forecast, the wind will be variable at 4 knots, with the<br />. visibility greater than 6 statute miles and no significant weather and clear sky<br />. conditions. METAR/TAF Quiz METAR TAF.The remarks section for KMDW has RAB35 listed. This entry means Answer. 14.3 Pilot Weather Report (PIREP) ... 14.5 Terminal Aerodrome Forecast (TAF) Terminal aerodrome forecasts (TAFs) are weather forecasts for selected airports with operating control towers around the country.METAR Los Angeles International Airport - KLAX/LAX. Los Angeles International Airport is a large airport in California, United States. The airport is located at latitude 33.94312 and longitude -118.40880. The airport has 4 runways: 7L/25R, 6R/24L, 6L/24R and 7R/25L. The ICAO airport code of this field is KLAX.. Conditions at: KMDW (CHICAGO , IL, US) observed 0853 UTC 13 OctNOTE: LAMP data beyond the time of the TAF data is denoted KMDW. MDW ATIS INFO A 0553Z. 19004KT 10SM CLR 22/14 A3013 (THREE ZERO ONE THREE) RMK AO2 SLP193 10250 20211 402940172 58003. RNAV Y RWY 22L APCH IN USE. LNDG AND DEPG RWYS 22L. NOTAMS... RWY 31R, 13L CLSD, RWY 4L, 22R CLSD, RWY 31L, 13R CLSD. AIRCRAFT SHOULD OPERATE MODE CEE ON ALL TWYS AND RWYS. CTC TWR 135.2 FOR ALL SERVICES. READBACK ALL RWY ... METAR/Synop Information for KMDW (MDW) in CHICAGO MIDWAY AIRPORT, IL, United States. The following information is known about KMDW. KMDW - Chicago/Midway Intl, IL, US. Issued at data at: 2133 utc 24 sep 2023. kmdw 242053z 10009kt 10sm few100 bkn180 bkn250 24/15 a2999 rmk ao2 slp151 t02440150 56010 $ kmdw 242051z 2421/2524 10008kt p6sm few100 sct200 fm250300 09009kt p6sm vcsh sct080 bkn200 fm250600 11005kt p6sm few060 bkn100 fm252000 07009kt p6sm bkn090METAR Los Angeles International Airport - KLAX/LAX. Los Angeles International Airport is a large airport in California, United States. The airport is located at latitude 33.94312 and longitude -118.40880. The airport has 4 runways: 7L/25R, 6R/24L, 6L/24R and 7R/25L. The ICAO airport code of this field is KLAX. Oct 11, 2023 · METAR Chicago O'hare Internatio...

Continue Reading